createdAt,value
2018-05-13T00:00:48.149Z,11.67
2018-05-13T00:03:16.964Z,14.67
2018-05-13T00:05:46.091Z,10.40
2018-05-13T00:08:14.891Z,11.17
2018-05-13T00:10:44.030Z,10.60
2018-05-13T00:13:12.923Z,10.80
2018-05-13T00:15:41.769Z,13.07
2018-05-13T00:18:10.672Z,10.67
2018-05-13T00:20:39.515Z,12.20
2018-05-13T00:23:08.633Z,13.27
2018-05-13T00:25:37.452Z,11.93
2018-05-13T00:28:06.317Z,14.43
2018-05-13T00:30:35.145Z,13.50
2018-05-13T00:33:03.976Z,12.90
2018-05-13T00:35:32.791Z,13.93
2018-05-13T00:38:01.719Z,14.43
2018-05-13T00:40:30.842Z,15.80
2018-05-13T00:42:59.999Z,34.87
2018-05-13T00:45:28.790Z,14.90
2018-05-13T00:47:57.697Z,14.03
2018-05-13T00:50:26.706Z,17.20
2018-05-13T00:52:55.836Z,27.10
2018-05-13T00:55:24.950Z,18.93
2018-05-13T00:57:54.092Z,15.30
2018-05-13T01:00:23.201Z,15.33
2018-05-13T01:02:52.149Z,13.27
2018-05-13T01:05:20.932Z,60.87
2018-05-13T01:07:49.810Z,22.07
2018-05-13T01:10:18.621Z,12.83
2018-05-13T01:12:47.487Z,27.47
2018-05-13T01:15:16.624Z,13.27
2018-05-13T01:17:45.753Z,13.63
2018-05-13T01:20:14.901Z,21.30
2018-05-13T01:22:43.714Z,14.23
2018-05-13T01:25:12.784Z,15.10
2018-05-13T01:27:41.893Z,15.03
2018-05-13T01:30:10.947Z,13.93
2018-05-13T01:32:40.074Z,32.43
2018-05-13T01:35:09.228Z,20.13
2018-05-13T01:37:38.336Z,12.83
2018-05-13T01:40:07.486Z,25.03
2018-05-13T01:42:36.595Z,32.87
2018-05-13T01:45:05.424Z,25.50
2018-05-13T01:47:34.252Z,13.80
2018-05-13T01:50:03.117Z,14.90
2018-05-13T01:52:31.954Z,14.60
2018-05-13T01:55:00.925Z,15.83
2018-05-13T01:57:30.048Z,15.50
2018-05-13T01:59:58.855Z,14.57
2018-05-13T02:02:27.958Z,17.40
2018-05-13T02:04:56.847Z,13.37
2018-05-13T02:07:25.990Z,12.47
2018-05-13T02:09:55.101Z,14.47
2018-05-13T02:12:24.244Z,15.87
2018-05-13T02:14:53.352Z,19.80
2018-05-13T02:17:22.494Z,17.77
2018-05-13T02:19:51.612Z,16.63
2018-05-13T02:22:20.742Z,13.17
2018-05-13T02:24:49.856Z,20.10
2018-05-13T02:27:19.002Z,19.33
2018-05-13T02:29:48.224Z,16.87
2018-05-13T02:32:17.375Z,15.17
2018-05-13T02:34:46.529Z,14.13
2018-05-13T02:37:15.636Z,13.90
2018-05-13T02:39:44.815Z,13.40
2018-05-13T02:42:13.920Z,12.03
2018-05-13T02:44:43.059Z,12.80
2018-05-13T02:47:11.863Z,14.30
2018-05-13T02:49:40.686Z,13.97
2018-05-13T02:52:09.535Z,16.60
2018-05-13T02:54:38.341Z,15.43
2018-05-13T02:57:07.254Z,14.10
2018-05-13T02:59:36.091Z,14.07
2018-05-13T03:02:04.906Z,13.70
2018-05-13T03:04:33.777Z,13.53
2018-05-13T03:07:02.609Z,12.70
2018-05-13T03:09:31.421Z,13.23
2018-05-13T03:12:00.568Z,12.57
2018-05-13T03:14:29.406Z,14.43
2018-05-13T03:16:58.247Z,41.00
2018-05-13T03:19:27.316Z,16.47
2018-05-13T03:21:56.425Z,19.77
2018-05-13T03:24:25.558Z,17.03
2018-05-13T03:26:54.691Z,15.03
2018-05-13T03:29:23.815Z,14.80
2018-05-13T03:31:52.927Z,17.03
2018-05-13T03:34:22.064Z,14.63
2018-05-13T03:36:51.208Z,15.17
2018-05-13T03:39:20.331Z,16.00
2018-05-13T03:41:49.440Z,14.43
2018-05-13T03:44:18.567Z,15.93
2018-05-13T03:46:47.680Z,16.23
2018-05-13T03:49:16.773Z,16.77
2018-05-13T03:51:45.585Z,16.10
2018-05-13T03:54:14.726Z,15.63
2018-05-13T03:56:43.840Z,17.27
2018-05-13T03:59:12.667Z,19.57
2018-05-13T04:01:41.515Z,17.23
2018-05-13T04:04:10.348Z,16.43
2018-05-13T04:06:39.171Z,15.77
2018-05-13T04:09:13.864Z,14.23
2018-05-13T04:11:48.688Z,16.47
2018-05-13T04:14:24.468Z,14.77
2018-05-13T04:16:53.308Z,15.90
2018-05-13T04:19:22.111Z,17.17
2018-05-13T04:21:50.957Z,14.27
2018-05-13T04:24:19.788Z,14.70
2018-05-13T04:26:48.645Z,14.13
2018-05-13T04:29:17.455Z,15.87
2018-05-13T04:31:46.304Z,13.40
2018-05-13T04:34:15.200Z,13.83
2018-05-13T04:36:44.078Z,14.17
2018-05-13T04:39:12.904Z,12.37
2018-05-13T04:41:41.750Z,12.67
2018-05-13T04:44:10.571Z,14.13
2018-05-13T04:46:39.386Z,23.07
2018-05-13T04:49:08.272Z,15.40
2018-05-13T04:51:35.747Z,14.70
2018-05-13T04:54:03.254Z,13.13
2018-05-13T04:56:31.478Z,14.40
2018-05-13T04:58:58.954Z,18.13
2018-05-13T05:01:26.412Z,14.80
2018-05-13T05:03:53.916Z,12.50
2018-05-13T05:06:22.144Z,15.30
2018-05-13T05:08:49.658Z,12.97
2018-05-13T05:11:17.103Z,13.83
2018-05-13T05:13:45.357Z,14.90
2018-05-13T05:16:16.022Z,13.10
2018-05-13T05:18:47.732Z,11.67
2018-05-13T05:21:16.564Z,12.70
2018-05-13T05:23:45.395Z,12.20
2018-05-13T05:26:14.242Z,14.27
2018-05-13T05:28:43.047Z,11.70
2018-05-13T05:31:11.881Z,11.83
2018-05-13T05:33:40.728Z,13.37
2018-05-13T05:36:09.587Z,11.43
2018-05-13T05:38:38.405Z,11.90
2018-05-13T05:41:07.221Z,12.53
2018-05-13T05:43:36.056Z,13.50
2018-05-13T05:46:04.923Z,14.77
2018-05-13T05:48:33.845Z,12.00
2018-05-13T05:51:02.661Z,11.47
2018-05-13T05:53:31.495Z,14.17
2018-05-13T05:56:00.320Z,12.23
2018-05-13T05:58:29.164Z,11.30
2018-05-13T06:00:57.979Z,13.90
2018-05-13T06:03:26.827Z,12.17
2018-05-13T06:05:55.634Z,12.60
2018-05-13T06:08:24.488Z,10.87
2018-05-13T06:10:53.331Z,10.90
2018-05-13T06:13:22.182Z,13.57
2018-05-13T06:15:51.015Z,12.37
2018-05-13T06:18:19.906Z,28.83
2018-05-13T06:20:48.743Z,10.73
2018-05-13T06:23:17.600Z,13.70
2018-05-13T06:25:46.427Z,15.00
2018-05-13T06:28:15.248Z,13.57
2018-05-13T06:30:44.091Z,13.20
2018-05-13T06:33:12.891Z,13.00
2018-05-13T06:35:41.734Z,18.03
2018-05-13T06:38:10.539Z,11.20
2018-05-13T06:40:39.434Z,10.73
2018-05-13T06:43:08.232Z,10.90
2018-05-13T06:45:37.101Z,9.73
2018-05-13T06:48:05.768Z,11.23
2018-05-13T06:50:33.300Z,10.10
2018-05-13T06:53:00.776Z,9.93
2018-05-13T06:55:28.228Z,10.40
2018-05-13T06:57:55.728Z,10.13
2018-05-13T07:00:23.213Z,9.67
2018-05-13T07:02:50.777Z,8.93
2018-05-13T07:05:18.950Z,10.33
2018-05-13T07:07:46.451Z,10.67
2018-05-13T07:10:13.917Z,9.77
2018-05-13T07:12:42.163Z,9.43
2018-05-13T07:15:09.629Z,11.37
2018-05-13T07:17:37.137Z,10.83
2018-05-13T07:20:04.593Z,9.77
2018-05-13T07:22:32.113Z,9.50
2018-05-13T07:25:01.106Z,9.80
2018-05-13T07:27:28.584Z,9.83
2018-05-13T07:29:56.832Z,13.40
2018-05-13T07:32:24.321Z,9.63
2018-05-13T07:34:52.556Z,11.97
2018-05-13T07:37:20.029Z,10.70
2018-05-13T07:39:48.299Z,10.67
2018-05-13T07:42:15.793Z,11.43
2018-05-13T07:44:44.039Z,13.03
2018-05-13T07:47:12.876Z,15.90
2018-05-13T07:49:41.721Z,12.63
2018-05-13T07:52:10.541Z,9.97
2018-05-13T07:54:39.399Z,10.43
2018-05-13T07:57:08.604Z,10.60
2018-05-13T07:59:37.728Z,10.47
2018-05-13T08:02:06.568Z,11.13
2018-05-13T08:04:34.074Z,13.50
2018-05-13T08:07:01.525Z,10.17
2018-05-13T08:09:29.791Z,10.80
2018-05-13T08:11:58.045Z,12.33
2018-05-13T08:14:25.542Z,10.43
2018-05-13T08:16:54.491Z,10.50
2018-05-13T08:19:21.973Z,10.23
2018-05-13T08:21:50.208Z,10.97
2018-05-13T08:24:17.711Z,16.67
2018-05-13T08:26:45.941Z,10.90
2018-05-13T08:29:13.446Z,10.93
2018-05-13T08:31:41.714Z,12.73
2018-05-13T08:34:09.956Z,10.50
2018-05-13T08:36:40.509Z,9.03
2018-05-13T08:39:07.972Z,9.83
2018-05-13T08:41:36.238Z,10.43
2018-05-13T08:44:03.704Z,11.53
2018-05-13T08:46:31.983Z,13.57
2018-05-13T08:48:59.456Z,12.73
2018-05-13T08:51:27.705Z,11.37
2018-05-13T08:53:55.232Z,10.17
2018-05-13T08:56:22.710Z,10.33
2018-05-13T08:58:50.164Z,8.63
2018-05-13T09:01:17.668Z,10.47
2018-05-13T09:03:45.911Z,10.13
2018-05-13T09:06:13.449Z,8.10
2018-05-13T09:08:42.142Z,9.73
2018-05-13T09:11:09.632Z,10.87
2018-05-13T09:13:37.868Z,9.77
2018-05-13T09:16:05.384Z,10.80
2018-05-13T09:18:32.853Z,9.37
2018-05-13T09:21:00.318Z,10.63
2018-05-13T09:23:27.821Z,9.37
2018-05-13T09:25:55.310Z,18.90
2018-05-13T09:28:23.585Z,9.80
2018-05-13T09:30:51.813Z,19.60
2018-05-13T09:33:19.327Z,15.20
2018-05-13T09:35:47.554Z,12.23
2018-05-13T09:38:15.130Z,19.37
2018-05-13T09:40:42.702Z,8.63
2018-05-13T09:43:10.149Z,10.57
2018-05-13T09:45:38.383Z,10.47
2018-05-13T09:48:07.507Z,10.10
2018-05-13T09:50:34.991Z,8.97
2018-05-13T09:53:03.215Z,9.77
2018-05-13T09:55:30.716Z,9.67
2018-05-13T09:57:58.941Z,11.70
2018-05-13T10:00:26.470Z,12.37
2018-05-13T10:02:53.933Z,88.33
2018-05-13T10:05:21.451Z,16.03
2018-05-13T10:07:49.016Z,13.97
2018-05-13T10:10:16.501Z,11.50
2018-05-13T10:12:43.978Z,9.30
2018-05-13T10:15:11.465Z,9.70
2018-05-13T10:17:38.945Z,11.60
2018-05-13T10:20:06.401Z,12.03
2018-05-13T10:22:33.946Z,22.00
2018-05-13T10:25:01.436Z,9.17
2018-05-13T10:27:29.705Z,59.10
2018-05-13T10:29:57.973Z,11.17
2018-05-13T10:32:25.516Z,12.47
2018-05-13T10:34:53.023Z,14.83
2018-05-13T10:37:20.495Z,9.20
2018-05-13T10:39:48.002Z,11.90
2018-05-13T10:42:15.501Z,8.20
2018-05-13T10:44:42.993Z,9.70
2018-05-13T10:47:10.481Z,11.10
2018-05-13T10:49:37.998Z,9.37
2018-05-13T10:52:05.476Z,14.60
2018-05-13T10:54:32.995Z,10.73
2018-05-13T10:57:00.482Z,9.83
2018-05-13T10:59:28.923Z,9.47
2018-05-13T11:01:56.392Z,9.50
2018-05-13T11:04:23.903Z,9.03
2018-05-13T11:06:52.176Z,9.13
2018-05-13T11:09:19.667Z,9.60
2018-05-13T11:11:47.914Z,9.90
2018-05-13T11:14:15.746Z,11.63
2018-05-13T11:16:43.230Z,9.80
2018-05-13T11:19:10.735Z,10.10
2018-05-13T11:21:38.199Z,11.80
2018-05-13T11:24:05.695Z,10.77
2018-05-13T11:26:33.176Z,11.67
2018-05-13T11:29:02.416Z,11.53
2018-05-13T11:31:29.911Z,10.63
2018-05-13T11:33:57.373Z,11.23
2018-05-13T11:36:24.875Z,14.30
2018-05-13T11:38:52.340Z,14.37
2018-05-13T11:41:19.826Z,13.13
2018-05-13T11:43:47.325Z,10.60
2018-05-13T11:46:15.590Z,10.70
2018-05-13T11:48:43.860Z,14.73
2018-05-13T11:51:13.024Z,11.40
2018-05-13T11:53:42.170Z,14.27
2018-05-13T11:56:11.272Z,10.27
2018-05-13T11:58:40.396Z,10.67
2018-05-13T12:01:09.522Z,9.40
2018-05-13T12:03:38.360Z,10.37
2018-05-13T12:06:07.478Z,9.80
2018-05-13T12:08:36.627Z,12.27
2018-05-13T12:11:05.793Z,10.40
2018-05-13T12:13:34.883Z,10.50
2018-05-13T12:16:03.752Z,12.63
2018-05-13T12:18:32.569Z,11.97
2018-05-13T12:21:01.422Z,10.07
2018-05-13T12:23:30.307Z,12.33
2018-05-13T12:25:59.200Z,9.40
2018-05-13T12:28:28.004Z,10.77
2018-05-13T12:30:56.873Z,10.90
2018-05-13T12:33:25.691Z,10.70
2018-05-13T12:35:54.846Z,9.93
2018-05-13T12:38:23.952Z,10.07
2018-05-13T12:40:53.100Z,11.80
2018-05-13T12:43:22.244Z,11.67
2018-05-13T12:45:51.415Z,9.20
2018-05-13T12:48:20.560Z,11.33
2018-05-13T12:50:49.730Z,10.23
2018-05-13T12:53:18.914Z,10.70
2018-05-13T12:55:48.049Z,10.23
2018-05-13T12:58:17.205Z,10.17
2018-05-13T13:00:46.348Z,9.73
2018-05-13T13:03:15.492Z,9.03
2018-05-13T13:05:44.604Z,9.20
2018-05-13T13:08:13.768Z,9.67
2018-05-13T13:10:42.585Z,10.73
2018-05-13T13:13:11.433Z,11.43
2018-05-13T13:15:40.270Z,9.83
2018-05-13T13:18:09.442Z,9.03
2018-05-13T13:20:38.563Z,10.33
2018-05-13T13:23:07.675Z,9.33
2018-05-13T13:25:36.842Z,9.10
2018-05-13T13:28:05.980Z,10.23
2018-05-13T13:30:35.212Z,8.57
2018-05-13T13:33:04.301Z,9.47
2018-05-13T13:35:33.463Z,8.13
2018-05-13T13:38:02.581Z,8.37
2018-05-13T13:40:31.731Z,11.87
2018-05-13T13:43:00.856Z,9.17
2018-05-13T13:45:29.981Z,10.77
2018-05-13T13:47:59.098Z,9.50
2018-05-13T13:53:03.907Z,8.63
2018-05-13T13:55:32.778Z,11.23
2018-05-13T13:58:01.762Z,9.57
2018-05-13T14:00:30.900Z,10.57
2018-05-13T14:03:00.059Z,9.57
2018-05-13T14:05:29.196Z,16.67
2018-05-13T14:07:58.397Z,9.37
2018-05-13T14:10:28.190Z,9.80
2018-05-13T14:12:57.375Z,9.00
2018-05-13T14:15:26.498Z,8.97
2018-05-13T14:17:55.708Z,8.97
2018-05-13T14:20:24.875Z,7.93
2018-05-13T14:22:54.030Z,9.50
2018-05-13T14:25:23.131Z,8.27
2018-05-13T14:27:52.292Z,9.53
2018-05-13T14:30:21.408Z,11.00
2018-05-13T14:32:50.548Z,9.87
2018-05-13T14:35:19.683Z,10.53
2018-05-13T14:37:48.844Z,9.90
2018-05-13T14:40:17.967Z,10.57
2018-05-13T14:42:48.290Z,11.23
2018-05-13T14:45:17.478Z,12.23
2018-05-13T14:47:46.417Z,13.23
2018-05-13T14:50:15.385Z,14.30
2018-05-13T14:52:44.407Z,13.63
2018-05-13T14:55:13.229Z,14.27
2018-05-13T14:57:42.057Z,15.70
2018-05-13T15:00:10.925Z,14.33
2018-05-13T15:02:39.992Z,14.70
2018-05-13T15:05:08.865Z,18.03
2018-05-13T15:07:37.973Z,15.23
2018-05-13T15:10:07.047Z,15.83
2018-05-13T15:12:36.136Z,14.57
2018-05-13T15:15:05.148Z,20.07
2018-05-13T15:17:33.970Z,20.60
2018-05-13T15:20:03.108Z,15.57
2018-05-13T15:22:33.960Z,15.50
2018-05-13T15:25:02.864Z,19.33
2018-05-13T15:27:31.756Z,17.37
2018-05-13T15:30:00.599Z,17.73
2018-05-13T15:32:29.432Z,17.80
2018-05-13T15:34:58.290Z,17.83
2018-05-13T15:37:27.146Z,18.53
2018-05-13T15:39:55.960Z,19.33
2018-05-13T15:42:24.938Z,21.17
2018-05-13T15:44:53.685Z,20.73
2018-05-13T15:47:22.532Z,21.77
2018-05-13T15:49:51.391Z,20.37
2018-05-13T15:52:20.564Z,19.17
2018-05-13T15:54:49.428Z,19.97
2018-05-13T15:57:18.228Z,21.43
2018-05-13T15:59:47.092Z,19.93
2018-05-13T16:02:15.922Z,20.33
2018-05-13T16:04:44.865Z,20.67
2018-05-13T16:07:14.056Z,22.50
2018-05-13T16:09:43.211Z,21.00
2018-05-13T16:12:12.121Z,21.33
2018-05-13T16:14:39.547Z,21.87
2018-05-13T16:17:07.030Z,20.37
2018-05-13T16:19:34.539Z,21.53
2018-05-13T16:22:02.784Z,21.10
2018-05-13T16:24:30.293Z,24.80
2018-05-13T16:26:57.765Z,22.30
2018-05-13T16:29:25.264Z,22.03
2018-05-13T16:31:52.768Z,25.37
2018-05-13T16:34:20.274Z,26.03
2018-05-13T16:36:47.782Z,21.80
2018-05-13T16:39:15.312Z,22.00
2018-05-13T16:41:43.592Z,22.70
2018-05-13T16:44:11.089Z,23.33
2018-05-13T16:46:38.620Z,28.30
2018-05-13T16:49:06.913Z,27.33
2018-05-13T16:51:34.409Z,25.23
2018-05-13T16:54:03.069Z,28.43
2018-05-13T16:56:30.652Z,34.57
2018-05-13T16:58:58.179Z,30.20
2018-05-13T17:01:25.733Z,27.90
2018-05-13T17:03:53.199Z,32.07
2018-05-13T17:06:20.714Z,27.83
2018-05-13T17:08:48.248Z,28.43
2018-05-13T17:11:15.745Z,30.30
2018-05-13T17:13:43.295Z,34.00
2018-05-13T17:16:10.794Z,36.80
2018-05-13T17:18:39.990Z,36.67
2018-05-13T17:21:07.485Z,40.50
2018-05-13T17:23:36.420Z,44.73
2018-05-13T17:26:05.211Z,42.40
2018-05-13T17:28:33.567Z,45.93
2018-05-13T17:31:02.397Z,48.60
2018-05-13T17:33:31.229Z,47.20
2018-05-13T17:36:00.108Z,54.43
2018-05-13T17:38:28.946Z,58.63
2018-05-13T17:40:56.537Z,58.97
2018-05-13T17:43:24.037Z,59.90
2018-05-13T17:45:53.203Z,61.13
2018-05-13T17:48:22.087Z,69.67
2018-05-13T17:50:49.565Z,68.67
2018-05-13T17:53:17.126Z,63.13
2018-05-13T17:55:44.652Z,72.00
2018-05-13T17:58:12.167Z,63.03
2018-05-13T18:00:40.470Z,65.50
2018-05-13T18:03:08.118Z,60.60
2018-05-13T18:05:35.699Z,65.00
2018-05-13T18:08:03.228Z,61.57
2018-05-13T18:10:31.553Z,53.50
2018-05-13T18:12:59.072Z,57.77
2018-05-13T18:15:27.458Z,50.10
2018-05-13T18:17:55.732Z,45.80
2018-05-13T18:20:24.874Z,41.47
2018-05-13T18:22:52.382Z,36.87
2018-05-13T18:25:20.679Z,37.60
2018-05-13T18:27:48.242Z,37.30
2018-05-13T18:30:15.736Z,39.63
2018-05-13T18:32:43.270Z,32.53
2018-05-13T18:35:10.818Z,35.50
2018-05-13T18:37:38.360Z,31.83
2018-05-13T18:40:06.664Z,29.77
2018-05-13T18:42:36.760Z,30.13
2018-05-13T18:45:05.631Z,31.07
2018-05-13T18:47:34.555Z,30.80
2018-05-13T18:50:03.514Z,33.87
2018-05-13T18:52:32.350Z,33.50
2018-05-13T18:55:01.210Z,31.00
2018-05-13T18:57:30.117Z,24.57
2018-05-13T18:59:59.044Z,31.27
2018-05-13T19:02:27.906Z,29.87
2018-05-13T19:04:56.793Z,28.63
2018-05-13T19:07:25.642Z,25.43
2018-05-13T19:09:54.752Z,28.77
2018-05-13T19:12:23.076Z,40.80
2018-05-13T19:14:50.632Z,38.00
2018-05-13T19:17:18.258Z,25.93
2018-05-13T19:19:45.809Z,24.20
2018-05-13T19:22:14.651Z,27.43
2018-05-13T19:24:43.560Z,21.77
2018-05-13T19:27:12.375Z,19.10
2018-05-13T19:29:41.266Z,23.37
2018-05-13T19:32:10.112Z,20.03
2018-05-13T19:34:39.012Z,22.87
2018-05-13T19:37:07.961Z,25.17
2018-05-13T19:39:36.870Z,24.77
2018-05-13T19:42:07.916Z,26.00
2018-05-13T19:44:36.787Z,29.83
2018-05-13T19:47:05.796Z,24.50
2018-05-13T19:49:34.689Z,25.63
2018-05-13T19:52:03.682Z,29.20
2018-05-13T19:54:32.722Z,26.70
2018-05-13T19:57:00.254Z,29.07
2018-05-13T19:59:27.793Z,32.27
2018-05-13T20:01:56.715Z,28.50
2018-05-13T20:04:25.578Z,39.23
2018-05-13T20:06:54.449Z,25.70
2018-05-13T20:09:23.312Z,22.73
2018-05-13T20:11:52.222Z,22.87
2018-05-13T20:14:21.091Z,34.47
2018-05-13T20:16:49.913Z,27.20
2018-05-13T20:19:18.799Z,25.60
2018-05-13T20:21:47.641Z,25.20
2018-05-13T20:24:16.539Z,20.07
2018-05-13T20:26:45.391Z,27.53
2018-05-13T20:29:14.263Z,22.13
2018-05-13T20:31:43.101Z,21.23
2018-05-13T20:34:12.017Z,24.60
2018-05-13T20:36:40.858Z,24.10
2018-05-13T20:39:08.389Z,25.03
2018-05-13T20:41:35.960Z,25.27
2018-05-13T20:44:03.610Z,26.07
2018-05-13T20:46:31.095Z,23.10
2018-05-13T20:48:58.630Z,22.37
2018-05-13T20:51:26.268Z,21.23
2018-05-13T20:53:54.520Z,23.13
2018-05-13T20:56:22.057Z,20.00
2018-05-13T20:58:49.551Z,20.47
2018-05-13T21:01:17.859Z,24.97
2018-05-13T21:03:45.335Z,24.23
2018-05-13T21:06:12.852Z,26.63
2018-05-13T21:08:41.135Z,24.67
2018-05-13T21:11:08.659Z,26.97
2018-05-13T21:13:36.144Z,28.50
2018-05-13T21:16:05.168Z,23.63
2018-05-13T21:18:33.971Z,26.13
2018-05-13T21:21:02.804Z,28.67
2018-05-13T21:23:31.724Z,32.23
2018-05-13T21:26:00.607Z,33.47
2018-05-13T21:28:29.626Z,31.67
2018-05-13T21:30:57.141Z,29.73
2018-05-13T21:33:25.958Z,29.43
2018-05-13T21:35:55.130Z,25.90
2018-05-13T21:38:24.291Z,26.00
2018-05-13T21:40:53.134Z,23.27
2018-05-13T21:43:22.001Z,18.17
2018-05-13T21:45:50.845Z,18.77
2018-05-13T21:48:19.690Z,16.23
2018-05-13T21:50:48.544Z,18.77
2018-05-13T21:53:17.404Z,12.40
2018-05-13T21:55:46.240Z,12.53
2018-05-13T21:58:15.080Z,13.97
2018-05-13T22:00:43.902Z,15.20
2018-05-13T22:03:12.784Z,12.83
2018-05-13T22:05:41.599Z,16.10
2018-05-13T22:08:10.473Z,15.60
2018-05-13T22:10:39.300Z,13.53
2018-05-13T22:13:08.164Z,16.97
2018-05-13T22:15:37.000Z,14.53
2018-05-13T22:18:05.845Z,16.33
2018-05-13T22:20:34.701Z,17.63
2018-05-13T22:23:03.532Z,18.97
2018-05-13T22:25:32.404Z,19.70
2018-05-13T22:28:01.261Z,19.10
2018-05-13T22:30:30.106Z,20.23
2018-05-13T22:32:58.916Z,23.00
2018-05-13T22:35:27.755Z,22.23
2018-05-13T22:37:56.583Z,18.50
2018-05-13T22:40:25.427Z,20.13
2018-05-13T22:42:54.394Z,19.77
2018-05-13T22:45:23.232Z,20.93
2018-05-13T22:47:52.048Z,19.17
2018-05-13T22:50:20.956Z,25.93
2018-05-13T22:52:49.772Z,21.57
2018-05-13T22:55:18.628Z,22.20
2018-05-13T22:57:47.512Z,23.10
2018-05-13T23:00:16.345Z,23.27
2018-05-13T23:02:45.171Z,21.97
2018-05-13T23:05:14.107Z,21.33
2018-05-13T23:07:42.949Z,22.17
2018-05-13T23:10:11.842Z,21.17
2018-05-13T23:12:40.654Z,22.87
2018-05-13T23:15:09.461Z,22.20
2018-05-13T23:17:38.303Z,21.07
2018-05-13T23:20:07.138Z,24.33
2018-05-13T23:22:35.977Z,22.80
2018-05-13T23:25:04.796Z,22.13
2018-05-13T23:27:33.645Z,21.13
2018-05-13T23:30:02.467Z,22.53
2018-05-13T23:32:31.373Z,21.60
2018-05-13T23:35:00.189Z,25.97
2018-05-13T23:37:29.023Z,28.90
2018-05-13T23:39:57.908Z,20.47
2018-05-13T23:42:26.750Z,22.27
2018-05-13T23:44:55.928Z,23.30
2018-05-13T23:47:24.833Z,21.83
2018-05-13T23:49:53.699Z,21.50
2018-05-13T23:52:22.507Z,25.63
2018-05-13T23:54:51.355Z,22.33
2018-05-13T23:57:20.172Z,22.80
2018-05-13T23:59:49.004Z,21.07
